sensor_id;sensor_type;location;lat;lon;timestamp;P1;durP1;ratioP1;P2;durP2;ratioP2
48789;SDS011;41718;51.980;5.734;2023-09-18T00:02:03;10.82;;;8.27;;
48789;SDS011;41718;51.980;5.734;2023-09-18T00:07:04;12.57;;;9.45;;
48789;SDS011;41718;51.980;5.734;2023-09-18T00:12:06;12.13;;;9.13;;
48789;SDS011;41718;51.980;5.734;2023-09-18T00:17:08;12.77;;;8.77;;
48789;SDS011;41718;51.980;5.734;2023-09-18T00:22:10;11.32;;;7.93;;
48789;SDS011;41718;51.980;5.734;2023-09-18T00:27:12;15.65;;;8.50;;
48789;SDS011;41718;51.980;5.734;2023-09-18T00:32:15;13.45;;;8.13;;
48789;SDS011;41718;51.980;5.734;2023-09-18T00:37:16;11.65;;;9.63;;
48789;SDS011;41718;51.980;5.734;2023-09-18T00:42:19;14.35;;;8.82;;
48789;SDS011;41718;51.980;5.734;2023-09-18T00:47:22;16.58;;;8.75;;
48789;SDS011;41718;51.980;5.734;2023-09-18T00:52:24;11.27;;;7.80;;
48789;SDS011;41718;51.980;5.734;2023-09-18T00:57:28;12.00;;;8.45;;
48789;SDS011;41718;51.980;5.734;2023-09-18T01:02:30;10.20;;;8.27;;
48789;SDS011;41718;51.980;5.734;2023-09-18T01:07:32;10.93;;;7.80;;
48789;SDS011;41718;51.980;5.734;2023-09-18T01:12:40;11.27;;;6.93;;
48789;SDS011;41718;51.980;5.734;2023-09-18T01:17:44;17.65;;;9.63;;
48789;SDS011;41718;51.980;5.734;2023-09-18T01:22:47;13.63;;;8.95;;
48789;SDS011;41718;51.980;5.734;2023-09-18T01:27:51;17.23;;;12.60;;
48789;SDS011;41718;51.980;5.734;2023-09-18T01:32:53;23.92;;;12.60;;
48789;SDS011;41718;51.980;5.734;2023-09-18T01:37:57;18.77;;;13.88;;
48789;SDS011;41718;51.980;5.734;2023-09-18T01:43:01;24.20;;;15.65;;
48789;SDS011;41718;51.980;5.734;2023-09-18T01:48:04;30.52;;;18.77;;
48789;SDS011;41718;51.980;5.734;2023-09-18T01:53:07;36.65;;;20.70;;
48789;SDS011;41718;51.980;5.734;2023-09-18T01:58:09;32.17;;;18.15;;
48789;SDS011;41718;51.980;5.734;2023-09-18T02:03:11;35.15;;;20.20;;
48789;SDS011;41718;51.980;5.734;2023-09-18T02:08:26;34.58;;;19.50;;
48789;SDS011;41718;51.980;5.734;2023-09-18T02:13:28;33.53;;;20.60;;
48789;SDS011;41718;51.980;5.734;2023-09-18T02:18:30;37.50;;;20.65;;
48789;SDS011;41718;51.980;5.734;2023-09-18T02:23:31;38.80;;;22.40;;
48789;SDS011;41718;51.980;5.734;2023-09-18T02:28:33;38.20;;;21.25;;
48789;SDS011;41718;51.980;5.734;2023-09-18T02:33:39;37.97;;;22.23;;
48789;SDS011;41718;51.980;5.734;2023-09-18T02:38:41;39.20;;;21.40;;
48789;SDS011;41718;51.980;5.734;2023-09-18T02:43:44;36.95;;;22.75;;
48789;SDS011;41718;51.980;5.734;2023-09-18T02:48:45;37.88;;;22.33;;
48789;SDS011;41718;51.980;5.734;2023-09-18T02:53:47;37.83;;;20.98;;
48789;SDS011;41718;51.980;5.734;2023-09-18T02:58:49;37.85;;;22.90;;
48789;SDS011;41718;51.980;5.734;2023-09-18T03:03:51;30.20;;;21.15;;
48789;SDS011;41718;51.980;5.734;2023-09-18T03:08:53;32.58;;;19.30;;
48789;SDS011;41718;51.980;5.734;2023-09-18T03:13:56;31.98;;;18.60;;
48789;SDS011;41718;51.980;5.734;2023-09-18T03:18:57;28.80;;;19.05;;
48789;SDS011;41718;51.980;5.734;2023-09-18T03:23:59;27.20;;;18.50;;
48789;SDS011;41718;51.980;5.734;2023-09-18T03:29:01;25.23;;;16.23;;
48789;SDS011;41718;51.980;5.734;2023-09-18T03:34:03;24.20;;;14.30;;
48789;SDS011;41718;51.980;5.734;2023-09-18T03:39:05;28.88;;;16.15;;
48789;SDS011;41718;51.980;5.734;2023-09-18T03:49:49;31.20;;;19.30;;
48789;SDS011;41718;51.980;5.734;2023-09-18T03:54:51;33.45;;;19.08;;
48789;SDS011;41718;51.980;5.734;2023-09-18T03:59:53;27.15;;;19.38;;
48789;SDS011;41718;51.980;5.734;2023-09-18T04:04:55;29.73;;;18.33;;
48789;SDS011;41718;51.980;5.734;2023-09-18T04:10:11;31.33;;;18.85;;
48789;SDS011;41718;51.980;5.734;2023-09-18T04:15:20;38.03;;;19.27;;
48789;SDS011;41718;51.980;5.734;2023-09-18T04:20:22;24.85;;;16.65;;
48789;SDS011;41718;51.980;5.734;2023-09-18T04:25:24;29.48;;;16.63;;
48789;SDS011;41718;51.980;5.734;2023-09-18T04:30:27;23.55;;;15.35;;
48789;SDS011;41718;51.980;5.734;2023-09-18T04:35:29;26.25;;;17.20;;
48789;SDS011;41718;51.980;5.734;2023-09-18T04:40:32;23.48;;;15.18;;
48789;SDS011;41718;51.980;5.734;2023-09-18T04:45:34;21.90;;;14.80;;
48789;SDS011;41718;51.980;5.734;2023-09-18T04:50:36;26.98;;;15.77;;
48789;SDS011;41718;51.980;5.734;2023-09-18T04:55:38;19.52;;;13.52;;
48789;SDS011;41718;51.980;5.734;2023-09-18T05:00:44;14.20;;;8.45;;
48789;SDS011;41718;51.980;5.734;2023-09-18T05:05:45;11.20;;;6.43;;
48789;SDS011;41718;51.980;5.734;2023-09-18T05:10:47;9.18;;;5.75;;
48789;SDS011;41718;51.980;5.734;2023-09-18T05:15:49;8.95;;;7.82;;
48789;SDS011;41718;51.980;5.734;2023-09-18T05:20:51;9.60;;;6.95;;
48789;SDS011;41718;51.980;5.734;2023-09-18T05:25:54;11.50;;;7.53;;
48789;SDS011;41718;51.980;5.734;2023-09-18T05:30:56;8.98;;;7.53;;
48789;SDS011;41718;51.980;5.734;2023-09-18T05:35:58;11.63;;;9.63;;
48789;SDS011;41718;51.980;5.734;2023-09-18T05:41:00;15.10;;;11.13;;
48789;SDS011;41718;51.980;5.734;2023-09-18T05:46:01;21.58;;;13.25;;
48789;SDS011;41718;51.980;5.734;2023-09-18T05:51:04;20.95;;;14.43;;
48789;SDS011;41718;51.980;5.734;2023-09-18T05:56:05;16.40;;;13.07;;
48789;SDS011;41718;51.980;5.734;2023-09-18T06:01:07;18.10;;;12.85;;
48789;SDS011;41718;51.980;5.734;2023-09-18T06:06:09;22.02;;;11.18;;
48789;SDS011;41718;51.980;5.734;2023-09-18T06:11:10;15.15;;;10.93;;
48789;SDS011;41718;51.980;5.734;2023-09-18T06:16:12;16.75;;;11.15;;
48789;SDS011;41718;51.980;5.734;2023-09-18T06:21:14;15.30;;;10.93;;
48789;SDS011;41718;51.980;5.734;2023-09-18T06:26:15;18.65;;;11.88;;
48789;SDS011;41718;51.980;5.734;2023-09-18T06:31:17;16.52;;;11.00;;
48789;SDS011;41718;51.980;5.734;2023-09-18T06:36:19;17.25;;;11.05;;
48789;SDS011;41718;51.980;5.734;2023-09-18T06:41:21;22.25;;;11.40;;
48789;SDS011;41718;51.980;5.734;2023-09-18T06:46:23;17.42;;;12.45;;
48789;SDS011;41718;51.980;5.734;2023-09-18T06:51:25;17.35;;;9.90;;
48789;SDS011;41718;51.980;5.734;2023-09-18T06:56:43;15.73;;;10.07;;
48789;SDS011;41718;51.980;5.734;2023-09-18T07:01:46;13.48;;;9.43;;
48789;SDS011;41718;51.980;5.734;2023-09-18T07:06:47;10.75;;;8.15;;
48789;SDS011;41718;51.980;5.734;2023-09-18T07:11:49;11.77;;;8.90;;
48789;SDS011;41718;51.980;5.734;2023-09-18T07:16:52;10.05;;;6.25;;
48789;SDS011;41718;51.980;5.734;2023-09-18T07:21:53;9.65;;;6.32;;
48789;SDS011;41718;51.980;5.734;2023-09-18T07:26:55;9.88;;;5.50;;
48789;SDS011;41718;51.980;5.734;2023-09-18T07:31:59;9.73;;;6.30;;
48789;SDS011;41718;51.980;5.734;2023-09-18T07:37:03;8.02;;;5.00;;
48789;SDS011;41718;51.980;5.734;2023-09-18T07:42:04;7.53;;;5.65;;
48789;SDS011;41718;51.980;5.734;2023-09-18T07:47:06;7.50;;;5.00;;
48789;SDS011;41718;51.980;5.734;2023-09-18T07:52:08;8.23;;;5.45;;
48789;SDS011;41718;51.980;5.734;2023-09-18T07:57:10;7.15;;;4.68;;
48789;SDS011;41718;51.980;5.734;2023-09-18T08:02:11;7.43;;;4.40;;
48789;SDS011;41718;51.980;5.734;2023-09-18T08:07:13;5.85;;;3.65;;
48789;SDS011;41718;51.980;5.734;2023-09-18T08:12:15;7.53;;;4.72;;
48789;SDS011;41718;51.980;5.734;2023-09-18T08:17:16;4.47;;;3.35;;
48789;SDS011;41718;51.980;5.734;2023-09-18T08:22:18;6.88;;;3.97;;
48789;SDS011;41718;51.980;5.734;2023-09-18T08:27:23;6.78;;;4.38;;
48789;SDS011;41718;51.980;5.734;2023-09-18T08:32:25;9.07;;;4.13;;
48789;SDS011;41718;51.980;5.734;2023-09-18T08:37:27;4.50;;;3.50;;
48789;SDS011;41718;51.980;5.734;2023-09-18T08:42:30;8.00;;;4.40;;
48789;SDS011;41718;51.980;5.734;2023-09-18T08:47:35;3.53;;;3.10;;
48789;SDS011;41718;51.980;5.734;2023-09-18T08:52:37;4.72;;;3.40;;
48789;SDS011;41718;51.980;5.734;2023-09-18T08:57:40;3.33;;;2.65;;
48789;SDS011;41718;51.980;5.734;2023-09-18T09:02:43;4.15;;;2.65;;
48789;SDS011;41718;51.980;5.734;2023-09-18T09:07:46;3.10;;;1.95;;
48789;SDS011;41718;51.980;5.734;2023-09-18T09:12:48;3.15;;;2.40;;
48789;SDS011;41718;51.980;5.734;2023-09-18T09:18:06;3.17;;;2.42;;
48789;SDS011;41718;51.980;5.734;2023-09-18T09:23:10;2.33;;;2.13;;
48789;SDS011;41718;51.980;5.734;2023-09-18T09:28:12;3.83;;;2.50;;
48789;SDS011;41718;51.980;5.734;2023-09-18T09:33:14;2.88;;;1.95;;
48789;SDS011;41718;51.980;5.734;2023-09-18T09:38:17;4.13;;;2.15;;
48789;SDS011;41718;51.980;5.734;2023-09-18T09:43:21;2.72;;;2.03;;
48789;SDS011;41718;51.980;5.734;2023-09-18T09:48:23;3.70;;;1.67;;
48789;SDS011;41718;51.980;5.734;2023-09-18T09:53:42;4.00;;;2.10;;
48789;SDS011;41718;51.980;5.734;2023-09-18T09:58:59;4.03;;;1.98;;
48789;SDS011;41718;51.980;5.734;2023-09-18T10:04:14;4.40;;;2.15;;
48789;SDS011;41718;51.980;5.734;2023-09-18T10:09:19;4.32;;;1.75;;
48789;SDS011;41718;51.980;5.734;2023-09-18T10:14:29;3.13;;;1.80;;
48789;SDS011;41718;51.980;5.734;2023-09-18T10:24:59;4.05;;;2.00;;
48789;SDS011;41718;51.980;5.734;2023-09-18T10:30:12;2.13;;;1.73;;
48789;SDS011;41718;51.980;5.734;2023-09-18T10:35:15;2.40;;;1.70;;
48789;SDS011;41718;51.980;5.734;2023-09-18T10:40:18;4.22;;;2.20;;
48789;SDS011;41718;51.980;5.734;2023-09-18T10:45:20;3.80;;;2.28;;
48789;SDS011;41718;51.980;5.734;2023-09-18T10:50:25;3.78;;;2.28;;
48789;SDS011;41718;51.980;5.734;2023-09-18T10:55:28;3.83;;;2.00;;
48789;SDS011;41718;51.980;5.734;2023-09-18T11:00:31;3.58;;;2.90;;
48789;SDS011;41718;51.980;5.734;2023-09-18T11:05:33;5.63;;;2.45;;
48789;SDS011;41718;51.980;5.734;2023-09-18T11:10:35;2.70;;;2.45;;
48789;SDS011;41718;51.980;5.734;2023-09-18T11:15:38;2.67;;;2.13;;
48789;SDS011;41718;51.980;5.734;2023-09-18T11:20:40;4.95;;;3.05;;
48789;SDS011;41718;51.980;5.734;2023-09-18T11:25:42;3.65;;;2.40;;
48789;SDS011;41718;51.980;5.734;2023-09-18T11:30:53;2.70;;;2.25;;
48789;SDS011;41718;51.980;5.734;2023-09-18T11:36:03;5.60;;;2.33;;
48789;SDS011;41718;51.980;5.734;2023-09-18T11:41:23;3.95;;;2.38;;
48789;SDS011;41718;51.980;5.734;2023-09-18T11:46:27;2.92;;;2.38;;
48789;SDS011;41718;51.980;5.734;2023-09-18T11:51:32;4.37;;;2.13;;
48789;SDS011;41718;51.980;5.734;2023-09-18T11:56:34;6.68;;;2.53;;
48789;SDS011;41718;51.980;5.734;2023-09-18T12:01:36;3.75;;;2.63;;
48789;SDS011;41718;51.980;5.734;2023-09-18T12:06:41;3.55;;;2.55;;
48789;SDS011;41718;51.980;5.734;2023-09-18T12:11:43;3.70;;;2.40;;
48789;SDS011;41718;51.980;5.734;2023-09-18T12:16:45;5.35;;;2.20;;
48789;SDS011;41718;51.980;5.734;2023-09-18T12:21:47;4.43;;;2.60;;
48789;SDS011;41718;51.980;5.734;2023-09-18T12:26:49;3.15;;;1.90;;
48789;SDS011;41718;51.980;5.734;2023-09-18T12:31:52;3.45;;;2.10;;
48789;SDS011;41718;51.980;5.734;2023-09-18T12:36:54;4.65;;;2.25;;
48789;SDS011;41718;51.980;5.734;2023-09-18T12:41:55;3.13;;;2.20;;
48789;SDS011;41718;51.980;5.734;2023-09-18T12:46:58;2.92;;;2.05;;
48789;SDS011;41718;51.980;5.734;2023-09-18T12:52:01;2.55;;;2.30;;
48789;SDS011;41718;51.980;5.734;2023-09-18T12:57:08;4.07;;;2.40;;
48789;SDS011;41718;51.980;5.734;2023-09-18T13:02:12;3.17;;;2.00;;
48789;SDS011;41718;51.980;5.734;2023-09-18T13:07:15;3.27;;;2.37;;
48789;SDS011;41718;51.980;5.734;2023-09-18T13:12:17;3.40;;;2.28;;
48789;SDS011;41718;51.980;5.734;2023-09-18T13:17:19;5.50;;;2.00;;
48789;SDS011;41718;51.980;5.734;2023-09-18T13:22:24;2.33;;;1.85;;
48789;SDS011;41718;51.980;5.734;2023-09-18T13:27:26;2.05;;;1.80;;
48789;SDS011;41718;51.980;5.734;2023-09-18T13:32:28;3.08;;;2.08;;
48789;SDS011;41718;51.980;5.734;2023-09-18T13:37:30;2.50;;;1.90;;
48789;SDS011;41718;51.980;5.734;2023-09-18T13:42:31;2.90;;;1.98;;
48789;SDS011;41718;51.980;5.734;2023-09-18T13:47:33;3.33;;;2.10;;
48789;SDS011;41718;51.980;5.734;2023-09-18T13:52:40;2.97;;;1.80;;
48789;SDS011;41718;51.980;5.734;2023-09-18T13:57:47;3.65;;;2.00;;
48789;SDS011;41718;51.980;5.734;2023-09-18T14:02:49;4.22;;;2.33;;
48789;SDS011;41718;51.980;5.734;2023-09-18T14:07:52;1.98;;;1.77;;
48789;SDS011;41718;51.980;5.734;2023-09-18T14:13:01;3.72;;;1.85;;
48789;SDS011;41718;51.980;5.734;2023-09-18T14:18:03;2.78;;;2.15;;
48789;SDS011;41718;51.980;5.734;2023-09-18T14:23:05;2.78;;;1.73;;
48789;SDS011;41718;51.980;5.734;2023-09-18T14:28:07;3.05;;;1.63;;
48789;SDS011;41718;51.980;5.734;2023-09-18T14:33:09;5.05;;;1.98;;
48789;SDS011;41718;51.980;5.734;2023-09-18T14:38:12;3.20;;;1.88;;
48789;SDS011;41718;51.980;5.734;2023-09-18T14:43:16;3.95;;;2.25;;
48789;SDS011;41718;51.980;5.734;2023-09-18T14:48:18;2.40;;;1.48;;
48789;SDS011;41718;51.980;5.734;2023-09-18T14:53:20;3.00;;;2.70;;
48789;SDS011;41718;51.980;5.734;2023-09-18T14:58:22;3.28;;;1.38;;
48789;SDS011;41718;51.980;5.734;2023-09-18T15:03:24;3.85;;;1.60;;
48789;SDS011;41718;51.980;5.734;2023-09-18T15:08:27;2.80;;;1.52;;
48789;SDS011;41718;51.980;5.734;2023-09-18T15:13:29;3.17;;;1.70;;
48789;SDS011;41718;51.980;5.734;2023-09-18T15:18:31;2.65;;;1.75;;
48789;SDS011;41718;51.980;5.734;2023-09-18T15:23:33;1.83;;;1.63;;
48789;SDS011;41718;51.980;5.734;2023-09-18T15:28:35;2.38;;;1.05;;
48789;SDS011;41718;51.980;5.734;2023-09-18T15:33:36;0.52;;;0.35;;
48789;SDS011;41718;51.980;5.734;2023-09-18T15:38:40;1.10;;;0.43;;
48789;SDS011;41718;51.980;5.734;2023-09-18T15:43:42;1.77;;;0.50;;
48789;SDS011;41718;51.980;5.734;2023-09-18T15:48:46;2.20;;;0.45;;
48789;SDS011;41718;51.980;5.734;2023-09-18T15:53:48;1.85;;;0.50;;
48789;SDS011;41718;51.980;5.734;2023-09-18T15:58:49;3.17;;;1.42;;
48789;SDS011;41718;51.980;5.734;2023-09-18T16:03:51;3.03;;;0.70;;
48789;SDS011;41718;51.980;5.734;2023-09-18T16:08:53;0.68;;;0.50;;
48789;SDS011;41718;51.980;5.734;2023-09-18T16:13:58;0.65;;;0.60;;
48789;SDS011;41718;51.980;5.734;2023-09-18T16:19:00;2.40;;;1.15;;
48789;SDS011;41718;51.980;5.734;2023-09-18T16:24:02;2.25;;;1.00;;
48789;SDS011;41718;51.980;5.734;2023-09-18T16:34:09;2.28;;;1.02;;
48789;SDS011;41718;51.980;5.734;2023-09-18T16:39:11;4.22;;;1.23;;
48789;SDS011;41718;51.980;5.734;2023-09-18T16:44:16;3.67;;;1.25;;
48789;SDS011;41718;51.980;5.734;2023-09-18T16:49:17;1.50;;;1.00;;
48789;SDS011;41718;51.980;5.734;2023-09-18T16:54:23;2.17;;;1.15;;
48789;SDS011;41718;51.980;5.734;2023-09-18T16:59:25;1.83;;;1.00;;
48789;SDS011;41718;51.980;5.734;2023-09-18T17:04:29;2.22;;;1.60;;
48789;SDS011;41718;51.980;5.734;2023-09-18T17:09:30;1.48;;;1.05;;
48789;SDS011;41718;51.980;5.734;2023-09-18T17:14:32;1.83;;;1.13;;
48789;SDS011;41718;51.980;5.734;2023-09-18T17:19:34;2.83;;;1.30;;
48789;SDS011;41718;51.980;5.734;2023-09-18T17:24:35;2.47;;;1.23;;
48789;SDS011;41718;51.980;5.734;2023-09-18T17:29:39;3.03;;;1.50;;
48789;SDS011;41718;51.980;5.734;2023-09-18T17:34:40;2.88;;;1.70;;
48789;SDS011;41718;51.980;5.734;2023-09-18T17:39:42;4.20;;;1.80;;
48789;SDS011;41718;51.980;5.734;2023-09-18T17:44:44;2.40;;;1.38;;
48789;SDS011;41718;51.980;5.734;2023-09-18T17:49:46;2.97;;;1.52;;
48789;SDS011;41718;51.980;5.734;2023-09-18T17:54:47;2.22;;;1.52;;
48789;SDS011;41718;51.980;5.734;2023-09-18T17:59:51;3.63;;;1.92;;
48789;SDS011;41718;51.980;5.734;2023-09-18T18:04:53;3.05;;;1.52;;
48789;SDS011;41718;51.980;5.734;2023-09-18T18:09:55;5.07;;;2.45;;
48789;SDS011;41718;51.980;5.734;2023-09-18T18:14:57;4.20;;;2.20;;
48789;SDS011;41718;51.980;5.734;2023-09-18T18:19:59;3.70;;;2.20;;
48789;SDS011;41718;51.980;5.734;2023-09-18T18:25:03;2.58;;;1.83;;
48789;SDS011;41718;51.980;5.734;2023-09-18T18:30:05;1.92;;;1.67;;
48789;SDS011;41718;51.980;5.734;2023-09-18T18:35:07;2.08;;;1.63;;
48789;SDS011;41718;51.980;5.734;2023-09-18T18:40:10;2.67;;;1.55;;
48789;SDS011;41718;51.980;5.734;2023-09-18T18:45:14;4.40;;;1.58;;
48789;SDS011;41718;51.980;5.734;2023-09-18T18:50:16;1.33;;;1.23;;
48789;SDS011;41718;51.980;5.734;2023-09-18T18:55:18;3.30;;;1.95;;
48789;SDS011;41718;51.980;5.734;2023-09-18T19:00:19;2.88;;;2.17;;
48789;SDS011;41718;51.980;5.734;2023-09-18T19:05:21;3.05;;;2.13;;
48789;SDS011;41718;51.980;5.734;2023-09-18T19:10:25;3.00;;;2.22;;
48789;SDS011;41718;51.980;5.734;2023-09-18T19:15:27;2.85;;;2.00;;
48789;SDS011;41718;51.980;5.734;2023-09-18T19:20:29;2.72;;;2.15;;
48789;SDS011;41718;51.980;5.734;2023-09-18T19:25:30;6.38;;;1.42;;
48789;SDS011;41718;51.980;5.734;2023-09-18T19:30:35;5.03;;;1.75;;
48789;SDS011;41718;51.980;5.734;2023-09-18T19:35:44;3.90;;;1.13;;
48789;SDS011;41718;51.980;5.734;2023-09-18T19:40:47;2.95;;;1.23;;
48789;SDS011;41718;51.980;5.734;2023-09-18T19:45:51;4.30;;;1.17;;
48789;SDS011;41718;51.980;5.734;2023-09-18T19:50:53;3.53;;;1.50;;
48789;SDS011;41718;51.980;5.734;2023-09-18T19:56:01;6.50;;;1.30;;
48789;SDS011;41718;51.980;5.734;2023-09-18T20:01:03;5.00;;;1.80;;
48789;SDS011;41718;51.980;5.734;2023-09-18T20:06:05;2.88;;;1.15;;
48789;SDS011;41718;51.980;5.734;2023-09-18T20:11:11;4.57;;;1.27;;
48789;SDS011;41718;51.980;5.734;2023-09-18T20:16:13;3.47;;;1.35;;
48789;SDS011;41718;51.980;5.734;2023-09-18T20:21:14;6.93;;;1.60;;
48789;SDS011;41718;51.980;5.734;2023-09-18T20:26:17;5.78;;;1.98;;
48789;SDS011;41718;51.980;5.734;2023-09-18T20:31:19;4.97;;;1.33;;
48789;SDS011;41718;51.980;5.734;2023-09-18T20:36:21;11.77;;;2.35;;
48789;SDS011;41718;51.980;5.734;2023-09-18T20:41:25;8.57;;;1.65;;
48789;SDS011;41718;51.980;5.734;2023-09-18T20:46:29;6.70;;;1.83;;
48789;SDS011;41718;51.980;5.734;2023-09-18T20:51:32;6.77;;;1.57;;
48789;SDS011;41718;51.980;5.734;2023-09-18T20:56:34;4.88;;;1.65;;
48789;SDS011;41718;51.980;5.734;2023-09-18T21:01:38;5.35;;;1.98;;
48789;SDS011;41718;51.980;5.734;2023-09-18T21:06:42;3.55;;;1.38;;
48789;SDS011;41718;51.980;5.734;2023-09-18T21:11:44;8.52;;;1.40;;
48789;SDS011;41718;51.980;5.734;2023-09-18T21:16:45;7.97;;;1.92;;
48789;SDS011;41718;51.980;5.734;2023-09-18T21:21:47;4.63;;;1.38;;
48789;SDS011;41718;51.980;5.734;2023-09-18T21:26:49;9.07;;;2.38;;
48789;SDS011;41718;51.980;5.734;2023-09-18T21:31:51;5.43;;;2.60;;
48789;SDS011;41718;51.980;5.734;2023-09-18T21:37:03;5.30;;;1.70;;
48789;SDS011;41718;51.980;5.734;2023-09-18T21:42:05;7.53;;;1.95;;
48789;SDS011;41718;51.980;5.734;2023-09-18T21:47:08;7.57;;;2.30;;
48789;SDS011;41718;51.980;5.734;2023-09-18T21:52:14;6.88;;;2.15;;
48789;SDS011;41718;51.980;5.734;2023-09-18T21:57:15;4.13;;;1.80;;
48789;SDS011;41718;51.980;5.734;2023-09-18T22:02:17;2.55;;;1.42;;
48789;SDS011;41718;51.980;5.734;2023-09-18T22:07:19;4.68;;;1.70;;
48789;SDS011;41718;51.980;5.734;2023-09-18T22:12:21;7.00;;;2.08;;
48789;SDS011;41718;51.980;5.734;2023-09-18T22:17:26;8.63;;;3.40;;
48789;SDS011;41718;51.980;5.734;2023-09-18T22:22:28;9.48;;;2.08;;
48789;SDS011;41718;51.980;5.734;2023-09-18T22:27:31;4.95;;;1.90;;
48789;SDS011;41718;51.980;5.734;2023-09-18T22:32:34;6.70;;;2.83;;
48789;SDS011;41718;51.980;5.734;2023-09-18T22:37:37;7.70;;;2.13;;
48789;SDS011;41718;51.980;5.734;2023-09-18T22:59:00;3.15;;;1.30;;
48789;SDS011;41718;51.980;5.734;2023-09-18T23:04:03;4.30;;;0.98;;
48789;SDS011;41718;51.980;5.734;2023-09-18T23:09:05;3.95;;;1.30;;
48789;SDS011;41718;51.980;5.734;2023-09-18T23:14:17;2.10;;;1.25;;
48789;SDS011;41718;51.980;5.734;2023-09-18T23:19:21;3.28;;;1.50;;
48789;SDS011;41718;51.980;5.734;2023-09-18T23:24:22;6.80;;;2.63;;
48789;SDS011;41718;51.980;5.734;2023-09-18T23:29:24;3.10;;;0.90;;
48789;SDS011;41718;51.980;5.734;2023-09-18T23:34:28;3.08;;;1.27;;
48789;SDS011;41718;51.980;5.734;2023-09-18T23:39:32;5.68;;;1.48;;
48789;SDS011;41718;51.980;5.734;2023-09-18T23:44:34;4.03;;;1.73;;
48789;SDS011;41718;51.980;5.734;2023-09-18T23:49:38;4.50;;;1.58;;
48789;SDS011;41718;51.980;5.734;2023-09-18T23:54:42;3.38;;;1.35;;
48789;SDS011;41718;51.980;5.734;2023-09-18T23:59:45;4.35;;;1.33;;
